GEC243A EDDM-EDDN
Flight info
| Callsign | GEC243A |
|---|---|
| Flight time | N/A |
| Altitude | 20000 |
| Route | INPUD2S INPUD Y102 UPALA UPALA1V |
| Aircraft | A333/H-SDE3GHIJ2J3J5M1RVWXY/LB2D1 |
Departure
| Time | 2026-05-07 15:33 |
|---|---|
| Airport | Munich Airport (EDDM) |
Arrival
| Time | N/A |
|---|---|
| Airport | Nuremberg Airport (EDDN) |
| Time | Latitude | Longitude | Altitude | Speed | Heading |
|---|---|---|---|---|---|
| 2026-05-07 15:06 | 48.35209 | 11.80420 | 1463 ft | 0 kts | 353° |
| 2026-05-07 15:18 | 48.35194 | 11.80423 | 1459 ft | 2 kts | 348° |
| 2026-05-07 15:19 | 48.35178 | 11.80429 | 1459 ft | 2 kts | 338° |
| 2026-05-07 15:19 | 48.35164 | 11.80441 | 1459 ft | 2 kts | 313° |
| 2026-05-07 15:19 | 48.35156 | 11.80462 | 1459 ft | 2 kts | 275° |
| 2026-05-07 15:19 | 48.35156 | 11.80480 | 1461 ft | 1 kts | 264° |
| 2026-05-07 15:20 | 48.35156 | 11.80483 | 1461 ft | 0 kts | 263° |
| 2026-05-07 15:21 | 48.35156 | 11.80482 | 1461 ft | 0 kts | 263° |
| 2026-05-07 15:21 | 48.35155 | 11.80461 | 1459 ft | 4 kts | 263° |
| 2026-05-07 15:22 | 48.35150 | 11.80406 | 1462 ft | 7 kts | 263° |
| 2026-05-07 15:22 | 48.35143 | 11.80316 | 1471 ft | 11 kts | 263° |
| 2026-05-07 15:22 | 48.35161 | 11.80219 | 1462 ft | 9 kts | 316° |
| 2026-05-07 15:22 | 48.35219 | 11.80187 | 1465 ft | 10 kts | 350° |
| 2026-05-07 15:23 | 48.35297 | 11.80169 | 1467 ft | 13 kts | 352° |
| 2026-05-07 15:23 | 48.35397 | 11.80147 | 1462 ft | 16 kts | 349° |
| 2026-05-07 15:23 | 48.35472 | 11.80130 | 1463 ft | 17 kts | 354° |
| 2026-05-07 15:23 | 48.35601 | 11.80110 | 1462 ft | 20 kts | 352° |
| 2026-05-07 15:24 | 48.35783 | 11.80050 | 1465 ft | 18 kts | 330° |
| 2026-05-07 15:24 | 48.35823 | 11.79928 | 1471 ft | 10 kts | 266° |
| 2026-05-07 15:24 | 48.35816 | 11.79816 | 1463 ft | 12 kts | 264° |
| 2026-05-07 15:24 | 48.35804 | 11.79670 | 1462 ft | 16 kts | 263° |
| 2026-05-07 15:25 | 48.35821 | 11.79539 | 1460 ft | 9 kts | 325° |
| 2026-05-07 15:25 | 48.35864 | 11.79523 | 1462 ft | 11 kts | 351° |
| 2026-05-07 15:25 | 48.35935 | 11.79511 | 1465 ft | 0 kts | 353° |
| 2026-05-07 15:27 | 48.35954 | 11.79507 | 1467 ft | 6 kts | 353° |
| 2026-05-07 15:27 | 48.36012 | 11.79496 | 1461 ft | 11 kts | 353° |
| 2026-05-07 15:27 | 48.36106 | 11.79477 | 1470 ft | 16 kts | 353° |
| 2026-05-07 15:27 | 48.36199 | 11.79497 | 1464 ft | 9 kts | 39° |
| 2026-05-07 15:28 | 48.36219 | 11.79564 | 1465 ft | 7 kts | 74° |
| 2026-05-07 15:28 | 48.36229 | 11.79651 | 1466 ft | 10 kts | 82° |
| 2026-05-07 15:28 | 48.36237 | 11.79770 | 1461 ft | 13 kts | 84° |
| 2026-05-07 15:28 | 48.36248 | 11.79917 | 1465 ft | 16 kts | 83° |
| 2026-05-07 15:29 | 48.36264 | 11.80117 | 1463 ft | 23 kts | 84° |
| 2026-05-07 15:29 | 48.36284 | 11.80393 | 1464 ft | 29 kts | 84° |
| 2026-05-07 15:29 | 48.36307 | 11.80687 | 1463 ft | 28 kts | 83° |
| 2026-05-07 15:29 | 48.36328 | 11.80969 | 1468 ft | 26 kts | 83° |
| 2026-05-07 15:30 | 48.36350 | 11.81238 | 1462 ft | 26 kts | 84° |
| 2026-05-07 15:30 | 48.36369 | 11.81501 | 1464 ft | 25 kts | 82° |
| 2026-05-07 15:30 | 48.36395 | 11.81836 | 1462 ft | 24 kts | 85° |
| 2026-05-07 15:30 | 48.36392 | 11.81997 | 1462 ft | 23 kts | 88° |
| 2026-05-07 15:31 | 48.36411 | 11.82136 | 1459 ft | 3 kts | 37° |
| 2026-05-07 15:31 | 48.36472 | 11.82149 | 1463 ft | 23 kts | 3° |
| 2026-05-07 15:31 | 48.36603 | 11.82108 | 1461 ft | 18 kts | 325° |
| 2026-05-07 15:31 | 48.36669 | 11.81980 | 1461 ft | 14 kts | 282° |
| 2026-05-07 15:32 | 48.36666 | 11.81797 | 1462 ft | 33 kts | 265° |
| 2026-05-07 15:32 | 48.36612 | 11.81108 | 1465 ft | 99 kts | 263° |
| 2026-05-07 15:32 | 48.36508 | 11.79766 | 1459 ft | 160 kts | 263° |
| 2026-05-07 15:32 | 48.36372 | 11.77925 | 1843 ft | 193 kts | 264° |
| 2026-05-07 15:33 | 48.36209 | 11.75723 | 2373 ft | 229 kts | 264° |
| 2026-05-07 15:33 | 48.36022 | 11.73202 | 3088 ft | 254 kts | 263° |
| 2026-05-07 15:33 | 48.36032 | 11.70510 | 3839 ft | 273 kts | 288° |
| 2026-05-07 15:33 | 48.37259 | 11.68202 | 4251 ft | 306 kts | 328° |
| 2026-05-07 15:34 | 48.39274 | 11.66776 | 4722 ft | 334 kts | 336° |
| 2026-05-07 15:34 | 48.41456 | 11.65387 | 5666 ft | 342 kts | 337° |
| 2026-05-07 15:34 | 48.43676 | 11.64058 | 6884 ft | 344 kts | 339° |
| 2026-05-07 15:34 | 48.45921 | 11.62791 | 7969 ft | 349 kts | 339° |
| 2026-05-07 15:35 | 48.48233 | 11.61437 | 8704 ft | 362 kts | 338° |
| 2026-05-07 15:35 | 48.50599 | 11.60032 | 9546 ft | 371 kts | 338° |
| 2026-05-07 15:35 | 48.53100 | 11.58545 | 9090 ft | 393 kts | 339° |
| 2026-05-07 15:35 | 48.55641 | 11.57299 | 8707 ft | 384 kts | 342° |
| 2026-05-07 15:36 | 48.58131 | 11.56026 | 8375 ft | 372 kts | 340° |
| 2026-05-07 15:36 | 48.60523 | 11.54737 | 8275 ft | 357 kts | 342° |
| 2026-05-07 15:36 | 48.62845 | 11.53695 | 8279 ft | 340 kts | 344° |
| 2026-05-07 15:36 | 48.65064 | 11.52761 | 8261 ft | 324 kts | 344° |
| 2026-05-07 15:37 | 48.67196 | 11.51869 | 8235 ft | 311 kts | 344° |
| 2026-05-07 15:37 | 48.69244 | 11.51013 | 8234 ft | 297 kts | 344° |
| 2026-05-07 15:37 | 48.71182 | 11.50203 | 8234 ft | 284 kts | 344° |
| 2026-05-07 15:37 | 48.73048 | 11.49424 | 8232 ft | 272 kts | 344° |
| 2026-05-07 15:38 | 48.74831 | 11.48679 | 8232 ft | 260 kts | 344° |
| 2026-05-07 15:38 | 48.76538 | 11.47967 | 8232 ft | 249 kts | 344° |
| 2026-05-07 15:38 | 48.78171 | 11.47286 | 8230 ft | 237 kts | 344° |
| 2026-05-07 15:38 | 48.79725 | 11.46640 | 8228 ft | 226 kts | 344° |
| 2026-05-07 15:39 | 48.81183 | 11.46034 | 8186 ft | 216 kts | 344° |
| 2026-05-07 15:39 | 48.82603 | 11.45445 | 8241 ft | 203 kts | 344° |
| 2026-05-07 15:39 | 48.84041 | 11.44848 | 8697 ft | 225 kts | 344° |
| 2026-05-07 15:39 | 48.85608 | 11.44198 | 9288 ft | 239 kts | 344° |
| 2026-05-07 15:40 | 48.87232 | 11.43527 | 10073 ft | 244 kts | 344° |
| 2026-05-07 15:40 | 48.88883 | 11.42848 | 10852 ft | 247 kts | 344° |
| 2026-05-07 15:40 | 48.90550 | 11.42168 | 11635 ft | 249 kts | 344° |
| 2026-05-07 15:40 | 48.92211 | 11.41494 | 12391 ft | 249 kts | 345° |
| 2026-05-07 15:41 | 48.93895 | 11.40814 | 13170 ft | 248 kts | 345° |
| 2026-05-07 15:41 | 48.95557 | 11.40146 | 13919 ft | 246 kts | 345° |
| 2026-05-07 15:41 | 48.97206 | 11.39489 | 14656 ft | 244 kts | 345° |
| 2026-05-07 15:41 | 48.98819 | 11.38851 | 15355 ft | 241 kts | 345° |